Portada
METAR-TAF:

METAR-TAF

Aeropuertos :

Harare, Zimbabue

Aeropuerto Internacional de Harare

latitud: 17-55S, longitud: 031-08E, altitud: 1479 m

Observación

El informe se hizo hace 1 hora y 4 minutos, a las 06:00 UTC
Temperatura 14°C
Humedad 41%
Presión 1029 hPa
Visibilidad 10 km o más
Nubes dispersas a una altura de 800 ft

METAR: FVHA 240600Z /////KT 9999 SCT008 14/01 Q1029 NOSIG

Hora: 09:04 (07:04 UTC)

Pronóstico

El informe se hizo hace 15 horas y 4 minutos, a las 16:00 UTC
Pronóstico válido del 23 a las 18 UTC al 24 a las 24 UTC
Viento 6 kt del sur-sureste
Visibilidad 10 km o más
sin nubes por debajo de 1500 m y sin presencia de cumulonimbus.

TAF: FVHA 231600Z 2318/2424 16006KT CAVOK

Observaciones y pronósticos meteorológicos de más de 4000 aeropuertos (mensajes METAR y TAF).

Los puntos amarillos y rojos representan las estaciones disponibles.

Ponga el ratón en el punto deseado para ver el nombre de la estación.

Haga clic para ver las observaciones y los pronósticos meteorológicos.

Para cambiar el mapa : haga clic en los botones verdes con una cruz de color negro para hacer un zoom, en el botón verde con un guión para alejar o en las flechas verdes para mapas adyacentes.


METAR-TAF: